<?xml version="1.0" encoding="utf-8"?>
<gpx xmlns:xsi="http://www.w3.org/2001/XMLSchema-instance" xmlns:xsd="http://www.w3.org/2001/XMLSchema" version="1.1" creator="Shapelink.com" xmlns="http://www.topografix.com/GPX/1/1" xmlns:gpxtpx="http://www.garmin.com/xmlschemas/TrackPointExtension/v1">
  <metadata>
    <name>Rullskidor - Klassisk 10.00 km, 2011-12-10</name>
    <desc></desc>
    <author><name>Alexander Engvall</name></author> 
    <time>2011-12-10T13:53:54Z</time>
  </metadata>
  <trk>
    <name>Rullskidor - Klassisk 10.00 km, 2011-12-10</name>
    <trkseg>
      <trkpt lat="59.4587114" lon="17.8044992">
        <ele>27.8</ele>
        <time>2011-12-10T13:53:54Z</time>
      </trkpt>
      <trkpt lat="59.458507" lon="17.8044779">
        <ele>23.8</ele>
        <time>2011-12-10T13:53:58Z</time>
      </trkpt>
      <trkpt lat="59.4582894" lon="17.8044759">
        <ele>21.6</ele>
        <time>2011-12-10T13:54:02Z</time>
      </trkpt>
      <trkpt lat="59.4581411" lon="17.8044443">
        <ele>18</ele>
        <time>2011-12-10T13:54:05Z</time>
      </trkpt>
      <trkpt lat="59.4580966" lon="17.8044418">
        <ele>17.2</ele>
        <time>2011-12-10T13:54:06Z</time>
      </trkpt>
      <trkpt lat="59.4579707" lon="17.8044572">
        <ele>14.8</ele>
        <time>2011-12-10T13:54:09Z</time>
      </trkpt>
      <trkpt lat="59.4578957" lon="17.8045028">
        <ele>13.4</ele>
        <time>2011-12-10T13:54:11Z</time>
      </trkpt>
      <trkpt lat="59.4577195" lon="17.8046146">
        <ele>10.6</ele>
        <time>2011-12-10T13:54:16Z</time>
      </trkpt>
      <trkpt lat="59.4575839" lon="17.8047738">
        <ele>13.2</ele>
        <time>2011-12-10T13:54:21Z</time>
      </trkpt>
      <trkpt lat="59.4575626" lon="17.8048121">
        <ele>13.4</ele>
        <time>2011-12-10T13:54:22Z</time>
      </trkpt>
      <trkpt lat="59.4574181" lon="17.8050675">
        <ele>14.4</ele>
        <time>2011-12-10T13:54:28Z</time>
      </trkpt>
      <trkpt lat="59.4572636" lon="17.8053522">
        <ele>17</ele>
        <time>2011-12-10T13:54:34Z</time>
      </trkpt>
      <trkpt lat="59.4570944" lon="17.8055467">
        <ele>19.6</ele>
        <time>2011-12-10T13:54:40Z</time>
      </trkpt>
      <trkpt lat="59.4568887" lon="17.8054456">
        <ele>21.2</ele>
        <time>2011-12-10T13:54:46Z</time>
      </trkpt>
      <trkpt lat="59.4567077" lon="17.805315">
        <ele>23.8</ele>
        <time>2011-12-10T13:54:51Z</time>
      </trkpt>
      <trkpt lat="59.4564987" lon="17.805196">
        <ele>24.4</ele>
        <time>2011-12-10T13:54:56Z</time>
      </trkpt>
      <trkpt lat="59.4562842" lon="17.8050865">
        <ele>25.4</ele>
        <time>2011-12-10T13:55:01Z</time>
      </trkpt>
      <trkpt lat="59.4562442" lon="17.8050592">
        <ele>25.2</ele>
        <time>2011-12-10T13:55:02Z</time>
      </trkpt>
      <trkpt lat="59.4561162" lon="17.8049717">
        <ele>24.4</ele>
        <time>2011-12-10T13:55:05Z</time>
      </trkpt>
      <trkpt lat="59.4560728" lon="17.8049514">
        <ele>24.2</ele>
        <time>2011-12-10T13:55:06Z</time>
      </trkpt>
      <trkpt lat="59.4560013" lon="17.8048882">
        <ele>24.4</ele>
        <time>2011-12-10T13:55:08Z</time>
      </trkpt>
      <trkpt lat="59.4558993" lon="17.8047829">
        <ele>23.6</ele>
        <time>2011-12-10T13:55:11Z</time>
      </trkpt>
      <trkpt lat="59.4558579" lon="17.8047469">
        <ele>24.2</ele>
        <time>2011-12-10T13:55:12Z</time>
      </trkpt>
      <trkpt lat="59.4557045" lon="17.8045936">
        <ele>24.2</ele>
        <time>2011-12-10T13:55:16Z</time>
      </trkpt>
      <trkpt lat="59.4556007" lon="17.8045112">
        <ele>23.6</ele>
        <time>2011-12-10T13:55:19Z</time>
      </trkpt>
      <trkpt lat="59.4555327" lon="17.8044455">
        <ele>21.8</ele>
        <time>2011-12-10T13:55:21Z</time>
      </trkpt>
      <trkpt lat="59.4554963" lon="17.8044076">
        <ele>21.4</ele>
        <time>2011-12-10T13:55:22Z</time>
      </trkpt>
      <trkpt lat="59.4553303" lon="17.8043009">
        <ele>20.2</ele>
        <time>2011-12-10T13:55:26Z</time>
      </trkpt>
      <trkpt lat="59.4551746" lon="17.8042842">
        <ele>20.6</ele>
        <time>2011-12-10T13:55:29Z</time>
      </trkpt>
      <trkpt lat="59.4551253" lon="17.8042839">
        <ele>20.2</ele>
        <time>2011-12-10T13:55:30Z</time>
      </trkpt>
      <trkpt lat="59.45494" lon="17.8043318">
        <ele>20</ele>
        <time>2011-12-10T13:55:34Z</time>
      </trkpt>
      <trkpt lat="59.4547595" lon="17.8044537">
        <ele>19.4</ele>
        <time>2011-12-10T13:55:38Z</time>
      </trkpt>
      <trkpt lat="59.4547193" lon="17.8044941">
        <ele>19.4</ele>
        <time>2011-12-10T13:55:39Z</time>
      </trkpt>
      <trkpt lat="59.4546829" lon="17.8045361">
        <ele>19.2</ele>
        <time>2011-12-10T13:55:40Z</time>
      </trkpt>
      <trkpt lat="59.454586" lon="17.8046739">
        <ele>19.4</ele>
        <time>2011-12-10T13:55:43Z</time>
      </trkpt>
      <trkpt lat="59.454545" lon="17.8047762">
        <ele>19.6</ele>
        <time>2011-12-10T13:55:45Z</time>
      </trkpt>
      <trkpt lat="59.4545205" lon="17.8048216">
        <ele>20</ele>
        <time>2011-12-10T13:55:46Z</time>
      </trkpt>
      <trkpt lat="59.4544285" lon="17.8049628">
        <ele>21</ele>
        <time>2011-12-10T13:55:49Z</time>
      </trkpt>
      <trkpt lat="59.4543748" lon="17.8050674">
        <ele>21.2</ele>
        <time>2011-12-10T13:55:51Z</time>
      </trkpt>
      <trkpt lat="59.4542794" lon="17.8051768">
        <ele>19.8</ele>
        <time>2011-12-10T13:55:54Z</time>
      </trkpt>
      <trkpt lat="59.4541837" lon="17.805247">
        <ele>19.8</ele>
        <time>2011-12-10T13:55:57Z</time>
      </trkpt>
      <trkpt lat="59.4540987" lon="17.8051939">
        <ele>19.2</ele>
        <time>2011-12-10T13:56:00Z</time>
      </trkpt>
      <trkpt lat="59.4540737" lon="17.8051693">
        <ele>19</ele>
        <time>2011-12-10T13:56:01Z</time>
      </trkpt>
      <trkpt lat="59.4540434" lon="17.805157">
        <ele>20.2</ele>
        <time>2011-12-10T13:56:02Z</time>
      </trkpt>
      <trkpt lat="59.4539442" lon="17.8053168">
        <ele>19.6</ele>
        <time>2011-12-10T13:56:08Z</time>
      </trkpt>
      <trkpt lat="59.4539098" lon="17.8056621">
        <ele>21</ele>
        <time>2011-12-10T13:56:15Z</time>
      </trkpt>
      <trkpt lat="59.4538926" lon="17.8057295">
        <ele>21.2</ele>
        <time>2011-12-10T13:56:17Z</time>
      </trkpt>
      <trkpt lat="59.453776" lon="17.8059246">
        <ele>20.6</ele>
        <time>2011-12-10T13:56:24Z</time>
      </trkpt>
      <trkpt lat="59.4536533" lon="17.8062448">
        <ele>28.2</ele>
        <time>2011-12-10T13:56:31Z</time>
      </trkpt>
      <trkpt lat="59.4534656" lon="17.8064014">
        <ele>26</ele>
        <time>2011-12-10T13:56:39Z</time>
      </trkpt>
      <trkpt lat="59.4533967" lon="17.8066406">
        <ele>21.8</ele>
        <time>2011-12-10T13:56:47Z</time>
      </trkpt>
      <trkpt lat="59.4534186" lon="17.8067069">
        <ele>21.6</ele>
        <time>2011-12-10T13:56:49Z</time>
      </trkpt>
      <trkpt lat="59.4535085" lon="17.8070405">
        <ele>20.2</ele>
        <time>2011-12-10T13:56:56Z</time>
      </trkpt>
      <trkpt lat="59.4535745" lon="17.8074384">
        <ele>17.8</ele>
        <time>2011-12-10T13:57:02Z</time>
      </trkpt>
      <trkpt lat="59.4537143" lon="17.8077263">
        <ele>17.8</ele>
        <time>2011-12-10T13:57:07Z</time>
      </trkpt>
      <trkpt lat="59.4538319" lon="17.8080273">
        <ele>17.8</ele>
        <time>2011-12-10T13:57:13Z</time>
      </trkpt>
      <trkpt lat="59.4539773" lon="17.8083491">
        <ele>16</ele>
        <time>2011-12-10T13:57:19Z</time>
      </trkpt>
      <trkpt lat="59.4540676" lon="17.8085963">
        <ele>14.6</ele>
        <time>2011-12-10T13:57:23Z</time>
      </trkpt>
      <trkpt lat="59.4540736" lon="17.8086537">
        <ele>15</ele>
        <time>2011-12-10T13:57:24Z</time>
      </trkpt>
      <trkpt lat="59.454024" lon="17.8088718">
        <ele>15.4</ele>
        <time>2011-12-10T13:57:28Z</time>
      </trkpt>
      <trkpt lat="59.4539657" lon="17.8089925">
        <ele>14.4</ele>
        <time>2011-12-10T13:57:30Z</time>
      </trkpt>
      <trkpt lat="59.4538528" lon="17.809191">
        <ele>14.2</ele>
        <time>2011-12-10T13:57:33Z</time>
      </trkpt>
      <trkpt lat="59.4538178" lon="17.8092577">
        <ele>14.2</ele>
        <time>2011-12-10T13:57:34Z</time>
      </trkpt>
      <trkpt lat="59.4537812" lon="17.8093208">
        <ele>13.6</ele>
        <time>2011-12-10T13:57:35Z</time>
      </trkpt>
      <trkpt lat="59.4536786" lon="17.809498">
        <ele>12.6</ele>
        <time>2011-12-10T13:57:38Z</time>
      </trkpt>
      <trkpt lat="59.4536219" lon="17.8096308">
        <ele>12.2</ele>
        <time>2011-12-10T13:57:40Z</time>
      </trkpt>
      <trkpt lat="59.4535919" lon="17.809685">
        <ele>12.2</ele>
        <time>2011-12-10T13:57:41Z</time>
      </trkpt>
      <trkpt lat="59.4535274" lon="17.8098066">
        <ele>10.6</ele>
        <time>2011-12-10T13:57:43Z</time>
      </trkpt>
      <trkpt lat="59.4534849" lon="17.8098543">
        <ele>10.4</ele>
        <time>2011-12-10T13:57:44Z</time>
      </trkpt>
      <trkpt lat="59.4533661" lon="17.8099834">
        <ele>10.4</ele>
        <time>2011-12-10T13:57:47Z</time>
      </trkpt>
      <trkpt lat="59.4533306" lon="17.8100337">
        <ele>12</ele>
        <time>2011-12-10T13:57:48Z</time>
      </trkpt>
      <trkpt lat="59.4532207" lon="17.8102594">
        <ele>11.4</ele>
        <time>2011-12-10T13:57:52Z</time>
      </trkpt>
      <trkpt lat="59.4531923" lon="17.810308">
        <ele>11</ele>
        <time>2011-12-10T13:57:53Z</time>
      </trkpt>
      <trkpt lat="59.4530772" lon="17.8104751">
        <ele>9.6</ele>
        <time>2011-12-10T13:57:56Z</time>
      </trkpt>
      <trkpt lat="59.4530389" lon="17.8105325">
        <ele>10</ele>
        <time>2011-12-10T13:57:57Z</time>
      </trkpt>
      <trkpt lat="59.4529265" lon="17.8107071">
        <ele>9</ele>
        <time>2011-12-10T13:58:00Z</time>
      </trkpt>
      <trkpt lat="59.4528881" lon="17.8107592">
        <ele>8.8</ele>
        <time>2011-12-10T13:58:01Z</time>
      </trkpt>
      <trkpt lat="59.4528468" lon="17.8108064">
        <ele>9</ele>
        <time>2011-12-10T13:58:02Z</time>
      </trkpt>
      <trkpt lat="59.4527555" lon="17.810981">
        <ele>8.6</ele>
        <time>2011-12-10T13:58:05Z</time>
      </trkpt>
      <trkpt lat="59.4525969" lon="17.8112551">
        <ele>8.2</ele>
        <time>2011-12-10T13:58:10Z</time>
      </trkpt>
      <trkpt lat="59.4525706" lon="17.8113095">
        <ele>8.8</ele>
        <time>2011-12-10T13:58:11Z</time>
      </trkpt>
      <trkpt lat="59.4525415" lon="17.8113575">
        <ele>9.2</ele>
        <time>2011-12-10T13:58:12Z</time>
      </trkpt>
      <trkpt lat="59.4524359" lon="17.8114924">
        <ele>10.4</ele>
        <time>2011-12-10T13:58:15Z</time>
      </trkpt>
      <trkpt lat="59.452328" lon="17.8118078">
        <ele>12.8</ele>
        <time>2011-12-10T13:58:20Z</time>
      </trkpt>
      <trkpt lat="59.4521862" lon="17.812132">
        <ele>14.2</ele>
        <time>2011-12-10T13:58:26Z</time>
      </trkpt>
      <trkpt lat="59.4521568" lon="17.8121699">
        <ele>13.2</ele>
        <time>2011-12-10T13:58:27Z</time>
      </trkpt>
      <trkpt lat="59.4520324" lon="17.8123382">
        <ele>10.4</ele>
        <time>2011-12-10T13:58:31Z</time>
      </trkpt>
      <trkpt lat="59.451875" lon="17.8125869">
        <ele>9.6</ele>
        <time>2011-12-10T13:58:36Z</time>
      </trkpt>
      <trkpt lat="59.4517185" lon="17.8128545">
        <ele>9</ele>
        <time>2011-12-10T13:58:41Z</time>
      </trkpt>
      <trkpt lat="59.4515737" lon="17.813079">
        <ele>12.2</ele>
        <time>2011-12-10T13:58:45Z</time>
      </trkpt>
      <trkpt lat="59.4514227" lon="17.8132919">
        <ele>12</ele>
        <time>2011-12-10T13:58:49Z</time>
      </trkpt>
      <trkpt lat="59.4513051" lon="17.8135297">
        <ele>10.2</ele>
        <time>2011-12-10T13:58:53Z</time>
      </trkpt>
      <trkpt lat="59.4512725" lon="17.8135855">
        <ele>10.2</ele>
        <time>2011-12-10T13:58:54Z</time>
      </trkpt>
      <trkpt lat="59.4511932" lon="17.8137574">
        <ele>8.4</ele>
        <time>2011-12-10T13:58:57Z</time>
      </trkpt>
      <trkpt lat="59.4511725" lon="17.8138189">
        <ele>8.2</ele>
        <time>2011-12-10T13:58:58Z</time>
      </trkpt>
      <trkpt lat="59.4511569" lon="17.8138909">
        <ele>7.4</ele>
        <time>2011-12-10T13:58:59Z</time>
      </trkpt>
      <trkpt lat="59.4510212" lon="17.8142435">
        <ele>12</ele>
        <time>2011-12-10T13:59:05Z</time>
      </trkpt>
      <trkpt lat="59.450841" lon="17.8144928">
        <ele>15.6</ele>
        <time>2011-12-10T13:59:10Z</time>
      </trkpt>
      <trkpt lat="59.4507853" lon="17.8145824">
        <ele>15.2</ele>
        <time>2011-12-10T13:59:12Z</time>
      </trkpt>
      <trkpt lat="59.4507038" lon="17.8147413">
        <ele>14.6</ele>
        <time>2011-12-10T13:59:15Z</time>
      </trkpt>
      <trkpt lat="59.4505784" lon="17.8150667">
        <ele>14.2</ele>
        <time>2011-12-10T13:59:22Z</time>
      </trkpt>
      <trkpt lat="59.4504431" lon="17.8153416">
        <ele>13.8</ele>
        <time>2011-12-10T13:59:28Z</time>
      </trkpt>
      <trkpt lat="59.4503152" lon="17.8156344">
        <ele>14.8</ele>
        <time>2011-12-10T13:59:34Z</time>
      </trkpt>
      <trkpt lat="59.450202" lon="17.8159405">
        <ele>13.6</ele>
        <time>2011-12-10T13:59:40Z</time>
      </trkpt>
      <trkpt lat="59.4500743" lon="17.8162441">
        <ele>13.2</ele>
        <time>2011-12-10T13:59:46Z</time>
      </trkpt>
      <trkpt lat="59.4499075" lon="17.8164703">
        <ele>16.6</ele>
        <time>2011-12-10T13:59:53Z</time>
      </trkpt>
      <trkpt lat="59.4497249" lon="17.8164834">
        <ele>19.4</ele>
        <time>2011-12-10T13:59:59Z</time>
      </trkpt>
      <trkpt lat="59.4495356" lon="17.8163145">
        <ele>19</ele>
        <time>2011-12-10T14:00:05Z</time>
      </trkpt>
      <trkpt lat="59.4494765" lon="17.8163025">
        <ele>19.2</ele>
        <time>2011-12-10T14:00:07Z</time>
      </trkpt>
      <trkpt lat="59.4494132" lon="17.8165276">
        <ele>19.2</ele>
        <time>2011-12-10T14:00:12Z</time>
      </trkpt>
      <trkpt lat="59.4493952" lon="17.8165854">
        <ele>19.4</ele>
        <time>2011-12-10T14:00:13Z</time>
      </trkpt>
      <trkpt lat="59.4493289" lon="17.816851">
        <ele>19.2</ele>
        <time>2011-12-10T14:00:17Z</time>
      </trkpt>
      <trkpt lat="59.4492512" lon="17.8172457">
        <ele>18</ele>
        <time>2011-12-10T14:00:23Z</time>
      </trkpt>
      <trkpt lat="59.4491992" lon="17.8176255">
        <ele>19.4</ele>
        <time>2011-12-10T14:00:29Z</time>
      </trkpt>
      <trkpt lat="59.4491444" lon="17.8179722">
        <ele>20</ele>
        <time>2011-12-10T14:00:35Z</time>
      </trkpt>
      <trkpt lat="59.4490947" lon="17.8183636">
        <ele>24.4</ele>
        <time>2011-12-10T14:00:42Z</time>
      </trkpt>
      <trkpt lat="59.449073" lon="17.8187229">
        <ele>23.2</ele>
        <time>2011-12-10T14:00:48Z</time>
      </trkpt>
      <trkpt lat="59.4490234" lon="17.8190769">
        <ele>21</ele>
        <time>2011-12-10T14:00:53Z</time>
      </trkpt>
      <trkpt lat="59.4489393" lon="17.819434">
        <ele>22.4</ele>
        <time>2011-12-10T14:00:58Z</time>
      </trkpt>
      <trkpt lat="59.4489023" lon="17.8197915">
        <ele>24.4</ele>
        <time>2011-12-10T14:01:03Z</time>
      </trkpt>
      <trkpt lat="59.4488751" lon="17.8201611">
        <ele>26.8</ele>
        <time>2011-12-10T14:01:11Z</time>
      </trkpt>
      <trkpt lat="59.4488285" lon="17.8205565">
        <ele>30.6</ele>
        <time>2011-12-10T14:01:18Z</time>
      </trkpt>
      <trkpt lat="59.448787" lon="17.8209569">
        <ele>31.4</ele>
        <time>2011-12-10T14:01:24Z</time>
      </trkpt>
      <trkpt lat="59.4487554" lon="17.8213504">
        <ele>31.2</ele>
        <time>2011-12-10T14:01:29Z</time>
      </trkpt>
      <trkpt lat="59.4487376" lon="17.8217521">
        <ele>34.2</ele>
        <time>2011-12-10T14:01:35Z</time>
      </trkpt>
      <trkpt lat="59.4487445" lon="17.8221068">
        <ele>34.6</ele>
        <time>2011-12-10T14:01:41Z</time>
      </trkpt>
      <trkpt lat="59.4487419" lon="17.8224701">
        <ele>36</ele>
        <time>2011-12-10T14:01:48Z</time>
      </trkpt>
      <trkpt lat="59.448743" lon="17.8228928">
        <ele>36.4</ele>
        <time>2011-12-10T14:01:54Z</time>
      </trkpt>
      <trkpt lat="59.4486399" lon="17.8232539">
        <ele>33.8</ele>
        <time>2011-12-10T14:01:59Z</time>
      </trkpt>
      <trkpt lat="59.4485556" lon="17.8232387">
        <ele>35.8</ele>
        <time>2011-12-10T14:02:01Z</time>
      </trkpt>
      <trkpt lat="59.4484563" lon="17.8232821">
        <ele>35.4</ele>
        <time>2011-12-10T14:02:04Z</time>
      </trkpt>
      <trkpt lat="59.4484317" lon="17.8233108">
        <ele>36.4</ele>
        <time>2011-12-10T14:02:05Z</time>
      </trkpt>
      <trkpt lat="59.4484159" lon="17.823352">
        <ele>36</ele>
        <time>2011-12-10T14:02:06Z</time>
      </trkpt>
      <trkpt lat="59.448402" lon="17.8234885">
        <ele>35.4</ele>
        <time>2011-12-10T14:02:10Z</time>
      </trkpt>
      <trkpt lat="59.44843" lon="17.8235951">
        <ele>35.4</ele>
        <time>2011-12-10T14:02:13Z</time>
      </trkpt>
      <trkpt lat="59.4484321" lon="17.8236423">
        <ele>34.6</ele>
        <time>2011-12-10T14:02:14Z</time>
      </trkpt>
      <trkpt lat="59.448432" lon="17.8237314">
        <ele>33.4</ele>
        <time>2011-12-10T14:02:16Z</time>
      </trkpt>
      <trkpt lat="59.4483831" lon="17.8239614">
        <ele>33.4</ele>
        <time>2011-12-10T14:02:21Z</time>
      </trkpt>
      <trkpt lat="59.4482842" lon="17.8242422">
        <ele>31.4</ele>
        <time>2011-12-10T14:02:26Z</time>
      </trkpt>
      <trkpt lat="59.4482165" lon="17.8243261">
        <ele>31</ele>
        <time>2011-12-10T14:02:28Z</time>
      </trkpt>
      <trkpt lat="59.4481008" lon="17.82444">
        <ele>31</ele>
        <time>2011-12-10T14:02:31Z</time>
      </trkpt>
      <trkpt lat="59.4479157" lon="17.8245872">
        <ele>32.8</ele>
        <time>2011-12-10T14:02:36Z</time>
      </trkpt>
      <trkpt lat="59.44788" lon="17.8246173">
        <ele>33.4</ele>
        <time>2011-12-10T14:02:37Z</time>
      </trkpt>
      <trkpt lat="59.4477368" lon="17.8247341">
        <ele>35.8</ele>
        <time>2011-12-10T14:02:41Z</time>
      </trkpt>
      <trkpt lat="59.4475507" lon="17.8248808">
        <ele>36.8</ele>
        <time>2011-12-10T14:02:46Z</time>
      </trkpt>
      <trkpt lat="59.4474981" lon="17.8249328">
        <ele>37.6</ele>
        <time>2011-12-10T14:02:48Z</time>
      </trkpt>
      <trkpt lat="59.4474234" lon="17.8251549">
        <ele>35.6</ele>
        <time>2011-12-10T14:02:53Z</time>
      </trkpt>
      <trkpt lat="59.4472764" lon="17.8253818">
        <ele>32.2</ele>
        <time>2011-12-10T14:03:00Z</time>
      </trkpt>
      <trkpt lat="59.4470844" lon="17.8254943">
        <ele>32</ele>
        <time>2011-12-10T14:03:05Z</time>
      </trkpt>
      <trkpt lat="59.4469057" lon="17.8255396">
        <ele>33</ele>
        <time>2011-12-10T14:03:10Z</time>
      </trkpt>
      <trkpt lat="59.4467248" lon="17.8255676">
        <ele>34.4</ele>
        <time>2011-12-10T14:03:15Z</time>
      </trkpt>
      <trkpt lat="59.4465219" lon="17.8256385">
        <ele>37.2</ele>
        <time>2011-12-10T14:03:20Z</time>
      </trkpt>
      <trkpt lat="59.4463053" lon="17.8256962">
        <ele>40.8</ele>
        <time>2011-12-10T14:03:26Z</time>
      </trkpt>
      <trkpt lat="59.4460948" lon="17.8257572">
        <ele>44.8</ele>
        <time>2011-12-10T14:03:32Z</time>
      </trkpt>
      <trkpt lat="59.4458883" lon="17.8257559">
        <ele>45</ele>
        <time>2011-12-10T14:03:38Z</time>
      </trkpt>
      <trkpt lat="59.4456976" lon="17.8256792">
        <ele>47.2</ele>
        <time>2011-12-10T14:03:44Z</time>
      </trkpt>
      <trkpt lat="59.4454987" lon="17.8256474">
        <ele>47.8</ele>
        <time>2011-12-10T14:03:50Z</time>
      </trkpt>
      <trkpt lat="59.4453105" lon="17.8256138">
        <ele>48.8</ele>
        <time>2011-12-10T14:03:56Z</time>
      </trkpt>
      <trkpt lat="59.4451123" lon="17.8255826">
        <ele>47</ele>
        <time>2011-12-10T14:04:02Z</time>
      </trkpt>
      <trkpt lat="59.4449087" lon="17.8255759">
        <ele>48.2</ele>
        <time>2011-12-10T14:04:07Z</time>
      </trkpt>
      <trkpt lat="59.4447018" lon="17.8255672">
        <ele>46.6</ele>
        <time>2011-12-10T14:04:13Z</time>
      </trkpt>
      <trkpt lat="59.4445077" lon="17.8255359">
        <ele>45.2</ele>
        <time>2011-12-10T14:04:18Z</time>
      </trkpt>
      <trkpt lat="59.4442898" lon="17.8254899">
        <ele>44.4</ele>
        <time>2011-12-10T14:04:24Z</time>
      </trkpt>
      <trkpt lat="59.4440721" lon="17.8254244">
        <ele>42.4</ele>
        <time>2011-12-10T14:04:31Z</time>
      </trkpt>
      <trkpt lat="59.4438764" lon="17.8253393">
        <ele>43</ele>
        <time>2011-12-10T14:04:37Z</time>
      </trkpt>
      <trkpt lat="59.4436941" lon="17.825313">
        <ele>42.2</ele>
        <time>2011-12-10T14:04:43Z</time>
      </trkpt>
      <trkpt lat="59.4434925" lon="17.8253145">
        <ele>44.4</ele>
        <time>2011-12-10T14:04:50Z</time>
      </trkpt>
      <trkpt lat="59.4433477" lon="17.8253107">
        <ele>48.2</ele>
        <time>2011-12-10T14:04:56Z</time>
      </trkpt>
      <trkpt lat="59.4432951" lon="17.825258">
        <ele>49.4</ele>
        <time>2011-12-10T14:04:58Z</time>
      </trkpt>
      <trkpt lat="59.4431179" lon="17.8252027">
        <ele>48.8</ele>
        <time>2011-12-10T14:05:04Z</time>
      </trkpt>
      <trkpt lat="59.4430896" lon="17.8252014">
        <ele>47.8</ele>
        <time>2011-12-10T14:05:05Z</time>
      </trkpt>
      <trkpt lat="59.4429568" lon="17.8252107">
        <ele>46.2</ele>
        <time>2011-12-10T14:05:09Z</time>
      </trkpt>
      <trkpt lat="59.4429154" lon="17.8252301">
        <ele>46.6</ele>
        <time>2011-12-10T14:05:10Z</time>
      </trkpt>
      <trkpt lat="59.4427149" lon="17.8252959">
        <ele>47</ele>
        <time>2011-12-10T14:05:15Z</time>
      </trkpt>
      <trkpt lat="59.4425182" lon="17.8253601">
        <ele>44.6</ele>
        <time>2011-12-10T14:05:21Z</time>
      </trkpt>
      <trkpt lat="59.442342" lon="17.8254278">
        <ele>41.2</ele>
        <time>2011-12-10T14:05:26Z</time>
      </trkpt>
      <trkpt lat="59.4421478" lon="17.8254668">
        <ele>35.2</ele>
        <time>2011-12-10T14:05:32Z</time>
      </trkpt>
      <trkpt lat="59.4419466" lon="17.8255714">
        <ele>29.2</ele>
        <time>2011-12-10T14:05:38Z</time>
      </trkpt>
      <trkpt lat="59.441774" lon="17.8256843">
        <ele>27.8</ele>
        <time>2011-12-10T14:05:43Z</time>
      </trkpt>
      <trkpt lat="59.4415934" lon="17.8258209">
        <ele>28.6</ele>
        <time>2011-12-10T14:05:48Z</time>
      </trkpt>
      <trkpt lat="59.4413884" lon="17.825966">
        <ele>29.4</ele>
        <time>2011-12-10T14:05:53Z</time>
      </trkpt>
      <trkpt lat="59.4412328" lon="17.8260733">
        <ele>30</ele>
        <time>2011-12-10T14:05:57Z</time>
      </trkpt>
      <trkpt lat="59.4412029" lon="17.8261054">
        <ele>29.2</ele>
        <time>2011-12-10T14:05:58Z</time>
      </trkpt>
      <trkpt lat="59.4410942" lon="17.8261587">
        <ele>31.2</ele>
        <time>2011-12-10T14:06:01Z</time>
      </trkpt>
      <trkpt lat="59.4410158" lon="17.8262054">
        <ele>31.6</ele>
        <time>2011-12-10T14:06:03Z</time>
      </trkpt>
      <trkpt lat="59.4408093" lon="17.8263244">
        <ele>36.6</ele>
        <time>2011-12-10T14:06:09Z</time>
      </trkpt>
      <trkpt lat="59.4406216" lon="17.8264307">
        <ele>41.4</ele>
        <time>2011-12-10T14:06:14Z</time>
      </trkpt>
      <trkpt lat="59.4404322" lon="17.826492">
        <ele>41.6</ele>
        <time>2011-12-10T14:06:19Z</time>
      </trkpt>
      <trkpt lat="59.4402298" lon="17.8265748">
        <ele>41.4</ele>
        <time>2011-12-10T14:06:24Z</time>
      </trkpt>
      <trkpt lat="59.4401854" lon="17.8265996">
        <ele>41.4</ele>
        <time>2011-12-10T14:06:25Z</time>
      </trkpt>
      <trkpt lat="59.4400482" lon="17.8266633">
        <ele>41.4</ele>
        <time>2011-12-10T14:06:28Z</time>
      </trkpt>
      <trkpt lat="59.4400069" lon="17.8266693">
        <ele>41.2</ele>
        <time>2011-12-10T14:06:29Z</time>
      </trkpt>
      <trkpt lat="59.4399254" lon="17.8266908">
        <ele>39.8</ele>
        <time>2011-12-10T14:06:31Z</time>
      </trkpt>
      <trkpt lat="59.4398425" lon="17.8267101">
        <ele>39</ele>
        <time>2011-12-10T14:06:33Z</time>
      </trkpt>
      <trkpt lat="59.4396737" lon="17.8267277">
        <ele>36.4</ele>
        <time>2011-12-10T14:06:37Z</time>
      </trkpt>
      <trkpt lat="59.4396186" lon="17.8267328">
        <ele>35.8</ele>
        <time>2011-12-10T14:06:38Z</time>
      </trkpt>
      <trkpt lat="59.4395363" lon="17.8267374">
        <ele>35</ele>
        <time>2011-12-10T14:06:40Z</time>
      </trkpt>
      <trkpt lat="59.4394138" lon="17.8267089">
        <ele>34.2</ele>
        <time>2011-12-10T14:06:43Z</time>
      </trkpt>
      <trkpt lat="59.4393682" lon="17.8267056">
        <ele>34.2</ele>
        <time>2011-12-10T14:06:44Z</time>
      </trkpt>
      <trkpt lat="59.4392768" lon="17.8267022">
        <ele>33</ele>
        <time>2011-12-10T14:06:46Z</time>
      </trkpt>
      <trkpt lat="59.4392325" lon="17.8267039">
        <ele>32.8</ele>
        <time>2011-12-10T14:06:47Z</time>
      </trkpt>
      <trkpt lat="59.4390253" lon="17.8266403">
        <ele>29.8</ele>
        <time>2011-12-10T14:06:52Z</time>
      </trkpt>
      <trkpt lat="59.4388888" lon="17.8266184">
        <ele>28</ele>
        <time>2011-12-10T14:06:55Z</time>
      </trkpt>
      <trkpt lat="59.4388416" lon="17.8266129">
        <ele>27.8</ele>
        <time>2011-12-10T14:06:56Z</time>
      </trkpt>
      <trkpt lat="59.4387631" lon="17.8265903">
        <ele>28.4</ele>
        <time>2011-12-10T14:06:58Z</time>
      </trkpt>
      <trkpt lat="59.4386404" lon="17.8265266">
        <ele>29.6</ele>
        <time>2011-12-10T14:07:02Z</time>
      </trkpt>
      <trkpt lat="59.4385582" lon="17.8265529">
        <ele>32.4</ele>
        <time>2011-12-10T14:07:05Z</time>
      </trkpt>
      <trkpt lat="59.4385383" lon="17.8265725">
        <ele>32.4</ele>
        <time>2011-12-10T14:07:06Z</time>
      </trkpt>
      <trkpt lat="59.4384692" lon="17.8266924">
        <ele>33.8</ele>
        <time>2011-12-10T14:07:09Z</time>
      </trkpt>
      <trkpt lat="59.4384122" lon="17.8270237">
        <ele>28.2</ele>
        <time>2011-12-10T14:07:15Z</time>
      </trkpt>
      <trkpt lat="59.4384305" lon="17.8273866">
        <ele>30.6</ele>
        <time>2011-12-10T14:07:21Z</time>
      </trkpt>
      <trkpt lat="59.4383806" lon="17.8277663">
        <ele>30</ele>
        <time>2011-12-10T14:07:27Z</time>
      </trkpt>
      <trkpt lat="59.4383174" lon="17.8280092">
        <ele>29</ele>
        <time>2011-12-10T14:07:31Z</time>
      </trkpt>
      <trkpt lat="59.4382497" lon="17.8280713">
        <ele>29.6</ele>
        <time>2011-12-10T14:07:33Z</time>
      </trkpt>
      <trkpt lat="59.4380421" lon="17.8280422">
        <ele>30.4</ele>
        <time>2011-12-10T14:07:38Z</time>
      </trkpt>
      <trkpt lat="59.4378636" lon="17.8279655">
        <ele>33.2</ele>
        <time>2011-12-10T14:07:42Z</time>
      </trkpt>
      <trkpt lat="59.437653" lon="17.8278484">
        <ele>37.8</ele>
        <time>2011-12-10T14:07:47Z</time>
      </trkpt>
      <trkpt lat="59.4375612" lon="17.8278262">
        <ele>37.8</ele>
        <time>2011-12-10T14:07:49Z</time>
      </trkpt>
      <trkpt lat="59.4374727" lon="17.8278224">
        <ele>40</ele>
        <time>2011-12-10T14:07:51Z</time>
      </trkpt>
      <trkpt lat="59.4372653" lon="17.8277708">
        <ele>44</ele>
        <time>2011-12-10T14:07:55Z</time>
      </trkpt>
      <trkpt lat="59.437171" lon="17.8277278">
        <ele>46.4</ele>
        <time>2011-12-10T14:07:57Z</time>
      </trkpt>
      <trkpt lat="59.4370485" lon="17.8276453">
        <ele>47.6</ele>
        <time>2011-12-10T14:08:00Z</time>
      </trkpt>
      <trkpt lat="59.4370096" lon="17.8276168">
        <ele>47.8</ele>
        <time>2011-12-10T14:08:01Z</time>
      </trkpt>
      <trkpt lat="59.4368712" lon="17.8275563">
        <ele>47.4</ele>
        <time>2011-12-10T14:08:05Z</time>
      </trkpt>
      <trkpt lat="59.4368339" lon="17.8275516">
        <ele>47</ele>
        <time>2011-12-10T14:08:06Z</time>
      </trkpt>
      <trkpt lat="59.4366847" lon="17.8275699">
        <ele>45</ele>
        <time>2011-12-10T14:08:10Z</time>
      </trkpt>
      <trkpt lat="59.4365108" lon="17.8276838">
        <ele>43.6</ele>
        <time>2011-12-10T14:08:15Z</time>
      </trkpt>
      <trkpt lat="59.4363505" lon="17.8278548">
        <ele>44.8</ele>
        <time>2011-12-10T14:08:20Z</time>
      </trkpt>
      <trkpt lat="59.4361657" lon="17.8280502">
        <ele>45.8</ele>
        <time>2011-12-10T14:08:25Z</time>
      </trkpt>
      <trkpt lat="59.4359803" lon="17.8282482">
        <ele>46.6</ele>
        <time>2011-12-10T14:08:30Z</time>
      </trkpt>
      <trkpt lat="59.4358326" lon="17.8284117">
        <ele>42</ele>
        <time>2011-12-10T14:08:34Z</time>
      </trkpt>
      <trkpt lat="59.4357938" lon="17.8284494">
        <ele>41.4</ele>
        <time>2011-12-10T14:08:35Z</time>
      </trkpt>
      <trkpt lat="59.4356582" lon="17.8285669">
        <ele>39</ele>
        <time>2011-12-10T14:08:38Z</time>
      </trkpt>
      <trkpt lat="59.4356027" lon="17.828609">
        <ele>38.4</ele>
        <time>2011-12-10T14:08:39Z</time>
      </trkpt>
      <trkpt lat="59.435458" lon="17.8287205">
        <ele>37.8</ele>
        <time>2011-12-10T14:08:42Z</time>
      </trkpt>
      <trkpt lat="59.435413" lon="17.8287245">
        <ele>37.6</ele>
        <time>2011-12-10T14:08:43Z</time>
      </trkpt>
      <trkpt lat="59.4352101" lon="17.8287979">
        <ele>35.8</ele>
        <time>2011-12-10T14:08:48Z</time>
      </trkpt>
      <trkpt lat="59.435021" lon="17.8286217">
        <ele>36.2</ele>
        <time>2011-12-10T14:08:53Z</time>
      </trkpt>
      <trkpt lat="59.4349809" lon="17.8285749">
        <ele>36.2</ele>
        <time>2011-12-10T14:08:54Z</time>
      </trkpt>
      <trkpt lat="59.4348118" lon="17.8284847">
        <ele>36.2</ele>
        <time>2011-12-10T14:08:58Z</time>
      </trkpt>
      <trkpt lat="59.4347174" lon="17.8284666">
        <ele>36.6</ele>
        <time>2011-12-10T14:09:00Z</time>
      </trkpt>
      <trkpt lat="59.4346224" lon="17.8284648">
        <ele>36.2</ele>
        <time>2011-12-10T14:09:02Z</time>
      </trkpt>
      <trkpt lat="59.4345688" lon="17.8284694">
        <ele>36.4</ele>
        <time>2011-12-10T14:09:03Z</time>
      </trkpt>
      <trkpt lat="59.4344138" lon="17.8284928">
        <ele>34.8</ele>
        <time>2011-12-10T14:09:06Z</time>
      </trkpt>
      <trkpt lat="59.43422" lon="17.8285257">
        <ele>34.4</ele>
        <time>2011-12-10T14:09:10Z</time>
      </trkpt>
      <trkpt lat="59.4339989" lon="17.8285456">
        <ele>33.4</ele>
        <time>2011-12-10T14:09:15Z</time>
      </trkpt>
      <trkpt lat="59.4339124" lon="17.8285557">
        <ele>33.8</ele>
        <time>2011-12-10T14:09:17Z</time>
      </trkpt>
      <trkpt lat="59.433819" lon="17.8285909">
        <ele>34</ele>
        <time>2011-12-10T14:09:19Z</time>
      </trkpt>
      <trkpt lat="59.433769" lon="17.8285966">
        <ele>33.2</ele>
        <time>2011-12-10T14:09:20Z</time>
      </trkpt>
      <trkpt lat="59.4336236" lon="17.8286059">
        <ele>32.8</ele>
        <time>2011-12-10T14:09:23Z</time>
      </trkpt>
      <trkpt lat="59.4335775" lon="17.8286181">
        <ele>31.8</ele>
        <time>2011-12-10T14:09:24Z</time>
      </trkpt>
      <trkpt lat="59.433418" lon="17.8286596">
        <ele>30.4</ele>
        <time>2011-12-10T14:09:27Z</time>
      </trkpt>
      <trkpt lat="59.4332098" lon="17.8287826">
        <ele>29.8</ele>
        <time>2011-12-10T14:09:31Z</time>
      </trkpt>
      <trkpt lat="59.4331643" lon="17.8288183">
        <ele>29.8</ele>
        <time>2011-12-10T14:09:32Z</time>
      </trkpt>
      <trkpt lat="59.4330832" lon="17.8288973">
        <ele>30</ele>
        <time>2011-12-10T14:09:34Z</time>
      </trkpt>
      <trkpt lat="59.4330378" lon="17.828939">
        <ele>30.6</ele>
        <time>2011-12-10T14:09:35Z</time>
      </trkpt>
      <trkpt lat="59.4328438" lon="17.8290991">
        <ele>32</ele>
        <time>2011-12-10T14:09:39Z</time>
      </trkpt>
      <trkpt lat="59.432712" lon="17.8292348">
        <ele>32.6</ele>
        <time>2011-12-10T14:09:42Z</time>
      </trkpt>
      <trkpt lat="59.4326775" lon="17.8292874">
        <ele>32.4</ele>
        <time>2011-12-10T14:09:43Z</time>
      </trkpt>
      <trkpt lat="59.4324977" lon="17.8294736">
        <ele>31.6</ele>
        <time>2011-12-10T14:09:47Z</time>
      </trkpt>
      <trkpt lat="59.4323048" lon="17.829646">
        <ele>32</ele>
        <time>2011-12-10T14:09:51Z</time>
      </trkpt>
      <trkpt lat="59.432159" lon="17.8298363">
        <ele>31.4</ele>
        <time>2011-12-10T14:09:55Z</time>
      </trkpt>
      <trkpt lat="59.4321259" lon="17.8298885">
        <ele>31</ele>
        <time>2011-12-10T14:09:56Z</time>
      </trkpt>
      <trkpt lat="59.4320584" lon="17.8299771">
        <ele>31.4</ele>
        <time>2011-12-10T14:09:58Z</time>
      </trkpt>
      <trkpt lat="59.4319318" lon="17.8300968">
        <ele>31.6</ele>
        <time>2011-12-10T14:10:01Z</time>
      </trkpt>
      <trkpt lat="59.4319064" lon="17.8301336">
        <ele>31.6</ele>
        <time>2011-12-10T14:10:02Z</time>
      </trkpt>
      <trkpt lat="59.4318418" lon="17.8302179">
        <ele>32</ele>
        <time>2011-12-10T14:10:04Z</time>
      </trkpt>
      <trkpt lat="59.4317631" lon="17.8303076">
        <ele>30</ele>
        <time>2011-12-10T14:10:06Z</time>
      </trkpt>
      <trkpt lat="59.4317269" lon="17.8303587">
        <ele>30.2</ele>
        <time>2011-12-10T14:10:07Z</time>
      </trkpt>
      <trkpt lat="59.4316496" lon="17.8304729">
        <ele>30.8</ele>
        <time>2011-12-10T14:10:09Z</time>
      </trkpt>
      <trkpt lat="59.4316053" lon="17.8305392">
        <ele>29.2</ele>
        <time>2011-12-10T14:10:10Z</time>
      </trkpt>
      <trkpt lat="59.4315688" lon="17.8306095">
        <ele>28.2</ele>
        <time>2011-12-10T14:10:11Z</time>
      </trkpt>
      <trkpt lat="59.4314333" lon="17.8308038">
        <ele>29.2</ele>
        <time>2011-12-10T14:10:14Z</time>
      </trkpt>
      <trkpt lat="59.4312726" lon="17.831055">
        <ele>27.4</ele>
        <time>2011-12-10T14:10:19Z</time>
      </trkpt>
      <trkpt lat="59.4311203" lon="17.8312577">
        <ele>28.6</ele>
        <time>2011-12-10T14:10:24Z</time>
      </trkpt>
      <trkpt lat="59.4309494" lon="17.8314596">
        <ele>29.4</ele>
        <time>2011-12-10T14:10:29Z</time>
      </trkpt>
      <trkpt lat="59.430757" lon="17.8316136">
        <ele>29.2</ele>
        <time>2011-12-10T14:10:34Z</time>
      </trkpt>
      <trkpt lat="59.4305936" lon="17.8317389">
        <ele>29.8</ele>
        <time>2011-12-10T14:10:38Z</time>
      </trkpt>
      <trkpt lat="59.430551" lon="17.8317725">
        <ele>29</ele>
        <time>2011-12-10T14:10:39Z</time>
      </trkpt>
      <trkpt lat="59.4303327" lon="17.8318684">
        <ele>30.4</ele>
        <time>2011-12-10T14:10:44Z</time>
      </trkpt>
      <trkpt lat="59.4302959" lon="17.8318857">
        <ele>31.2</ele>
        <time>2011-12-10T14:10:45Z</time>
      </trkpt>
      <trkpt lat="59.4301765" lon="17.8320237">
        <ele>29.8</ele>
        <time>2011-12-10T14:10:50Z</time>
      </trkpt>
      <trkpt lat="59.43022" lon="17.8321743">
        <ele>25</ele>
        <time>2011-12-10T14:10:53Z</time>
      </trkpt>
      <trkpt lat="59.4302928" lon="17.8323172">
        <ele>21.6</ele>
        <time>2011-12-10T14:10:56Z</time>
      </trkpt>
      <trkpt lat="59.4304223" lon="17.8326406">
        <ele>18.6</ele>
        <time>2011-12-10T14:11:02Z</time>
      </trkpt>
      <trkpt lat="59.4305555" lon="17.8329598">
        <ele>17</ele>
        <time>2011-12-10T14:11:08Z</time>
      </trkpt>
      <trkpt lat="59.4306904" lon="17.833267">
        <ele>15</ele>
        <time>2011-12-10T14:11:14Z</time>
      </trkpt>
      <trkpt lat="59.4308249" lon="17.8335635">
        <ele>16.2</ele>
        <time>2011-12-10T14:11:23Z</time>
      </trkpt>
      <trkpt lat="59.4310041" lon="17.8336564">
        <ele>17</ele>
        <time>2011-12-10T14:11:31Z</time>
      </trkpt>
      <trkpt lat="59.4312073" lon="17.8337114">
        <ele>17.8</ele>
        <time>2011-12-10T14:11:39Z</time>
      </trkpt>
      <trkpt lat="59.4312898" lon="17.8337497">
        <ele>18</ele>
        <time>2011-12-10T14:11:42Z</time>
      </trkpt>
      <trkpt lat="59.4313736" lon="17.8338449">
        <ele>19.4</ele>
        <time>2011-12-10T14:11:45Z</time>
      </trkpt>
      <trkpt lat="59.4315492" lon="17.8339819">
        <ele>21.2</ele>
        <time>2011-12-10T14:11:51Z</time>
      </trkpt>
      <trkpt lat="59.43173" lon="17.834085">
        <ele>19.4</ele>
        <time>2011-12-10T14:11:57Z</time>
      </trkpt>
      <trkpt lat="59.4318982" lon="17.8342091">
        <ele>19</ele>
        <time>2011-12-10T14:12:02Z</time>
      </trkpt>
      <trkpt lat="59.4320662" lon="17.8343304">
        <ele>17.6</ele>
        <time>2011-12-10T14:12:07Z</time>
      </trkpt>
      <trkpt lat="59.4322318" lon="17.8344787">
        <ele>18.2</ele>
        <time>2011-12-10T14:12:12Z</time>
      </trkpt>
      <trkpt lat="59.432292" lon="17.8345421">
        <ele>18.8</ele>
        <time>2011-12-10T14:12:14Z</time>
      </trkpt>
      <trkpt lat="59.43239" lon="17.8346599">
        <ele>18.4</ele>
        <time>2011-12-10T14:12:17Z</time>
      </trkpt>
      <trkpt lat="59.4325189" lon="17.834908">
        <ele>19.8</ele>
        <time>2011-12-10T14:12:21Z</time>
      </trkpt>
      <trkpt lat="59.4325832" lon="17.8350448">
        <ele>20</ele>
        <time>2011-12-10T14:12:23Z</time>
      </trkpt>
      <trkpt lat="59.4326438" lon="17.835185">
        <ele>20</ele>
        <time>2011-12-10T14:12:25Z</time>
      </trkpt>
      <trkpt lat="59.4327376" lon="17.8354876">
        <ele>19.6</ele>
        <time>2011-12-10T14:12:29Z</time>
      </trkpt>
      <trkpt lat="59.4327541" lon="17.8355638">
        <ele>19.8</ele>
        <time>2011-12-10T14:12:30Z</time>
      </trkpt>
      <trkpt lat="59.4327891" lon="17.8357104">
        <ele>20.2</ele>
        <time>2011-12-10T14:12:32Z</time>
      </trkpt>
      <trkpt lat="59.4328354" lon="17.8359239">
        <ele>19.4</ele>
        <time>2011-12-10T14:12:35Z</time>
      </trkpt>
      <trkpt lat="59.4328521" lon="17.8361367">
        <ele>18.4</ele>
        <time>2011-12-10T14:12:38Z</time>
      </trkpt>
      <trkpt lat="59.4328702" lon="17.8362941">
        <ele>18.2</ele>
        <time>2011-12-10T14:12:40Z</time>
      </trkpt>
      <trkpt lat="59.432901" lon="17.8366915">
        <ele>17.4</ele>
        <time>2011-12-10T14:12:45Z</time>
      </trkpt>
      <trkpt lat="59.4329389" lon="17.8371007">
        <ele>17.8</ele>
        <time>2011-12-10T14:12:51Z</time>
      </trkpt>
      <trkpt lat="59.4329103" lon="17.8374898">
        <ele>17.2</ele>
        <time>2011-12-10T14:12:56Z</time>
      </trkpt>
      <trkpt lat="59.4328747" lon="17.8379005">
        <ele>18</ele>
        <time>2011-12-10T14:13:02Z</time>
      </trkpt>
      <trkpt lat="59.4328453" lon="17.8382906">
        <ele>19</ele>
        <time>2011-12-10T14:13:08Z</time>
      </trkpt>
      <trkpt lat="59.432794" lon="17.8386895">
        <ele>21</ele>
        <time>2011-12-10T14:13:14Z</time>
      </trkpt>
      <trkpt lat="59.4327133" lon="17.8390624">
        <ele>20.6</ele>
        <time>2011-12-10T14:13:21Z</time>
      </trkpt>
      <trkpt lat="59.4326669" lon="17.8393155">
        <ele>20.8</ele>
        <time>2011-12-10T14:14:10Z</time>
      </trkpt>
      <trkpt lat="59.432569" lon="17.8396807">
        <ele>20.4</ele>
        <time>2011-12-10T14:14:16Z</time>
      </trkpt>
      <trkpt lat="59.4324416" lon="17.839985">
        <ele>18.8</ele>
        <time>2011-12-10T14:14:21Z</time>
      </trkpt>
      <trkpt lat="59.432301" lon="17.8402464">
        <ele>18</ele>
        <time>2011-12-10T14:14:26Z</time>
      </trkpt>
      <trkpt lat="59.4321476" lon="17.8404885">
        <ele>19.4</ele>
        <time>2011-12-10T14:14:31Z</time>
      </trkpt>
      <trkpt lat="59.4319943" lon="17.8407195">
        <ele>19.4</ele>
        <time>2011-12-10T14:14:36Z</time>
      </trkpt>
      <trkpt lat="59.4318206" lon="17.8408651">
        <ele>18</ele>
        <time>2011-12-10T14:14:41Z</time>
      </trkpt>
      <trkpt lat="59.4317376" lon="17.8409485">
        <ele>16.4</ele>
        <time>2011-12-10T14:14:44Z</time>
      </trkpt>
      <trkpt lat="59.4317259" lon="17.8411261">
        <ele>16.8</ele>
        <time>2011-12-10T14:14:47Z</time>
      </trkpt>
      <trkpt lat="59.4317659" lon="17.8412746">
        <ele>16.2</ele>
        <time>2011-12-10T14:14:50Z</time>
      </trkpt>
      <trkpt lat="59.4318128" lon="17.8414725">
        <ele>15.8</ele>
        <time>2011-12-10T14:14:53Z</time>
      </trkpt>
      <trkpt lat="59.4318098" lon="17.8418566">
        <ele>18</ele>
        <time>2011-12-10T14:14:59Z</time>
      </trkpt>
      <trkpt lat="59.4317818" lon="17.8422281">
        <ele>19.8</ele>
        <time>2011-12-10T14:15:04Z</time>
      </trkpt>
      <trkpt lat="59.4317501" lon="17.8426394">
        <ele>18.2</ele>
        <time>2011-12-10T14:15:10Z</time>
      </trkpt>
      <trkpt lat="59.4317024" lon="17.8429879">
        <ele>20.6</ele>
        <time>2011-12-10T14:15:15Z</time>
      </trkpt>
      <trkpt lat="59.4316464" lon="17.8433667">
        <ele>19.8</ele>
        <time>2011-12-10T14:15:21Z</time>
      </trkpt>
      <trkpt lat="59.4316031" lon="17.8437088">
        <ele>18.6</ele>
        <time>2011-12-10T14:15:26Z</time>
      </trkpt>
      <trkpt lat="59.4315604" lon="17.8440781">
        <ele>19.2</ele>
        <time>2011-12-10T14:15:31Z</time>
      </trkpt>
      <trkpt lat="59.4315963" lon="17.8442209">
        <ele>19.6</ele>
        <time>2011-12-10T14:15:34Z</time>
      </trkpt>
      <trkpt lat="59.4317023" lon="17.8443264">
        <ele>19.6</ele>
        <time>2011-12-10T14:15:38Z</time>
      </trkpt>
      <trkpt lat="59.4319042" lon="17.8443719">
        <ele>18.4</ele>
        <time>2011-12-10T14:15:45Z</time>
      </trkpt>
      <trkpt lat="59.4320921" lon="17.8443918">
        <ele>17.6</ele>
        <time>2011-12-10T14:15:51Z</time>
      </trkpt>
      <trkpt lat="59.4322297" lon="17.8443884">
        <ele>17</ele>
        <time>2011-12-10T14:15:55Z</time>
      </trkpt>
      <trkpt lat="59.4322939" lon="17.8444008">
        <ele>17</ele>
        <time>2011-12-10T14:15:57Z</time>
      </trkpt>
      <trkpt lat="59.4324754" lon="17.8444191">
        <ele>15.8</ele>
        <time>2011-12-10T14:16:02Z</time>
      </trkpt>
      <trkpt lat="59.4326692" lon="17.8444207">
        <ele>16</ele>
        <time>2011-12-10T14:16:08Z</time>
      </trkpt>
      <trkpt lat="59.4328727" lon="17.8443815">
        <ele>15.8</ele>
        <time>2011-12-10T14:16:14Z</time>
      </trkpt>
      <trkpt lat="59.4330846" lon="17.8443026">
        <ele>15.4</ele>
        <time>2011-12-10T14:16:20Z</time>
      </trkpt>
      <trkpt lat="59.4332933" lon="17.8442555">
        <ele>15.2</ele>
        <time>2011-12-10T14:16:26Z</time>
      </trkpt>
      <trkpt lat="59.4334844" lon="17.8442068">
        <ele>16.2</ele>
        <time>2011-12-10T14:16:32Z</time>
      </trkpt>
      <trkpt lat="59.4336663" lon="17.844128">
        <ele>16.8</ele>
        <time>2011-12-10T14:16:38Z</time>
      </trkpt>
      <trkpt lat="59.4338424" lon="17.8440296">
        <ele>16.6</ele>
        <time>2011-12-10T14:16:44Z</time>
      </trkpt>
      <trkpt lat="59.434021" lon="17.8439369">
        <ele>18</ele>
        <time>2011-12-10T14:16:50Z</time>
      </trkpt>
      <trkpt lat="59.4342133" lon="17.8438508">
        <ele>20.4</ele>
        <time>2011-12-10T14:16:57Z</time>
      </trkpt>
      <trkpt lat="59.4344032" lon="17.8437269">
        <ele>23</ele>
        <time>2011-12-10T14:17:05Z</time>
      </trkpt>
      <trkpt lat="59.4345889" lon="17.8435881">
        <ele>24.6</ele>
        <time>2011-12-10T14:17:13Z</time>
      </trkpt>
      <trkpt lat="59.434754" lon="17.843452">
        <ele>25.8</ele>
        <time>2011-12-10T14:17:20Z</time>
      </trkpt>
      <trkpt lat="59.4349432" lon="17.8433044">
        <ele>27.2</ele>
        <time>2011-12-10T14:17:29Z</time>
      </trkpt>
      <trkpt lat="59.4351374" lon="17.843211">
        <ele>26.8</ele>
        <time>2011-12-10T14:17:39Z</time>
      </trkpt>
      <trkpt lat="59.4353342" lon="17.8431729">
        <ele>25.8</ele>
        <time>2011-12-10T14:17:47Z</time>
      </trkpt>
      <trkpt lat="59.4354621" lon="17.8431465">
        <ele>26.8</ele>
        <time>2011-12-10T14:17:52Z</time>
      </trkpt>
      <trkpt lat="59.4355135" lon="17.8431366">
        <ele>26.6</ele>
        <time>2011-12-10T14:17:54Z</time>
      </trkpt>
      <trkpt lat="59.4357187" lon="17.8430904">
        <ele>26.2</ele>
        <time>2011-12-10T14:18:01Z</time>
      </trkpt>
      <trkpt lat="59.4359218" lon="17.8430387">
        <ele>26.2</ele>
        <time>2011-12-10T14:18:07Z</time>
      </trkpt>
      <trkpt lat="59.4361213" lon="17.8429548">
        <ele>29</ele>
        <time>2011-12-10T14:18:13Z</time>
      </trkpt>
      <trkpt lat="59.4362979" lon="17.8428496">
        <ele>29.6</ele>
        <time>2011-12-10T14:18:20Z</time>
      </trkpt>
      <trkpt lat="59.4364756" lon="17.8428168">
        <ele>32</ele>
        <time>2011-12-10T14:18:29Z</time>
      </trkpt>
      <trkpt lat="59.4365993" lon="17.8430074">
        <ele>34.8</ele>
        <time>2011-12-10T14:18:40Z</time>
      </trkpt>
      <trkpt lat="59.4366242" lon="17.8429992">
        <ele>35</ele>
        <time>2011-12-10T14:18:42Z</time>
      </trkpt>
      <trkpt lat="59.4366509" lon="17.8429873">
        <ele>35.2</ele>
        <time>2011-12-10T14:18:44Z</time>
      </trkpt>
      <trkpt lat="59.4367889" lon="17.8428583">
        <ele>35.4</ele>
        <time>2011-12-10T14:18:51Z</time>
      </trkpt>
      <trkpt lat="59.436954" lon="17.8426475">
        <ele>40.8</ele>
        <time>2011-12-10T14:18:59Z</time>
      </trkpt>
      <trkpt lat="59.437109" lon="17.8424953">
        <ele>41.4</ele>
        <time>2011-12-10T14:19:04Z</time>
      </trkpt>
      <trkpt lat="59.4372782" lon="17.8422799">
        <ele>42.8</ele>
        <time>2011-12-10T14:19:10Z</time>
      </trkpt>
      <trkpt lat="59.4374319" lon="17.8420799">
        <ele>44.8</ele>
        <time>2011-12-10T14:19:15Z</time>
      </trkpt>
      <trkpt lat="59.4375835" lon="17.8418706">
        <ele>40</ele>
        <time>2011-12-10T14:19:20Z</time>
      </trkpt>
      <trkpt lat="59.4377527" lon="17.8416342">
        <ele>37.8</ele>
        <time>2011-12-10T14:19:26Z</time>
      </trkpt>
      <trkpt lat="59.4379196" lon="17.8414321">
        <ele>36.8</ele>
        <time>2011-12-10T14:19:35Z</time>
      </trkpt>
      <trkpt lat="59.4380861" lon="17.8412309">
        <ele>36</ele>
        <time>2011-12-10T14:19:44Z</time>
      </trkpt>
      <trkpt lat="59.4382386" lon="17.8410309">
        <ele>34.4</ele>
        <time>2011-12-10T14:19:52Z</time>
      </trkpt>
      <trkpt lat="59.4383863" lon="17.8408426">
        <ele>33</ele>
        <time>2011-12-10T14:19:58Z</time>
      </trkpt>
      <trkpt lat="59.4385563" lon="17.8407114">
        <ele>32.6</ele>
        <time>2011-12-10T14:20:03Z</time>
      </trkpt>
      <trkpt lat="59.4387506" lon="17.8405884">
        <ele>32</ele>
        <time>2011-12-10T14:20:08Z</time>
      </trkpt>
      <trkpt lat="59.4389338" lon="17.8404762">
        <ele>31.2</ele>
        <time>2011-12-10T14:20:13Z</time>
      </trkpt>
      <trkpt lat="59.4391172" lon="17.8403663">
        <ele>31.8</ele>
        <time>2011-12-10T14:20:17Z</time>
      </trkpt>
      <trkpt lat="59.4392969" lon="17.8402233">
        <ele>30.6</ele>
        <time>2011-12-10T14:20:22Z</time>
      </trkpt>
      <trkpt lat="59.4394052" lon="17.840172">
        <ele>30.4</ele>
        <time>2011-12-10T14:20:25Z</time>
      </trkpt>
      <trkpt lat="59.4394742" lon="17.8401238">
        <ele>30.8</ele>
        <time>2011-12-10T14:20:27Z</time>
      </trkpt>
      <trkpt lat="59.4396569" lon="17.8400301">
        <ele>28.4</ele>
        <time>2011-12-10T14:20:32Z</time>
      </trkpt>
      <trkpt lat="59.4398494" lon="17.8399228">
        <ele>28.2</ele>
        <time>2011-12-10T14:20:37Z</time>
      </trkpt>
      <trkpt lat="59.4399025" lon="17.8398896">
        <ele>28.8</ele>
        <time>2011-12-10T14:20:39Z</time>
      </trkpt>
      <trkpt lat="59.4400275" lon="17.839798">
        <ele>27.6</ele>
        <time>2011-12-10T14:20:43Z</time>
      </trkpt>
      <trkpt lat="59.4402238" lon="17.8397374">
        <ele>29</ele>
        <time>2011-12-10T14:20:49Z</time>
      </trkpt>
      <trkpt lat="59.4404082" lon="17.8397094">
        <ele>32.2</ele>
        <time>2011-12-10T14:20:54Z</time>
      </trkpt>
      <trkpt lat="59.440616" lon="17.839611">
        <ele>32.8</ele>
        <time>2011-12-10T14:21:00Z</time>
      </trkpt>
      <trkpt lat="59.4408043" lon="17.8395064">
        <ele>33.6</ele>
        <time>2011-12-10T14:21:05Z</time>
      </trkpt>
      <trkpt lat="59.4409806" lon="17.8394348">
        <ele>35.6</ele>
        <time>2011-12-10T14:21:10Z</time>
      </trkpt>
      <trkpt lat="59.4411873" lon="17.8393412">
        <ele>34.8</ele>
        <time>2011-12-10T14:21:15Z</time>
      </trkpt>
      <trkpt lat="59.4413692" lon="17.8392651">
        <ele>31</ele>
        <time>2011-12-10T14:21:19Z</time>
      </trkpt>
      <trkpt lat="59.4415665" lon="17.839227">
        <ele>28</ele>
        <time>2011-12-10T14:21:23Z</time>
      </trkpt>
      <trkpt lat="59.4416148" lon="17.8392107">
        <ele>27.2</ele>
        <time>2011-12-10T14:21:24Z</time>
      </trkpt>
      <trkpt lat="59.4417662" lon="17.8391752">
        <ele>26.6</ele>
        <time>2011-12-10T14:21:27Z</time>
      </trkpt>
      <trkpt lat="59.4419478" lon="17.839138">
        <ele>26.2</ele>
        <time>2011-12-10T14:21:31Z</time>
      </trkpt>
      <trkpt lat="59.4419895" lon="17.8391314">
        <ele>26.6</ele>
        <time>2011-12-10T14:21:32Z</time>
      </trkpt>
      <trkpt lat="59.4421608" lon="17.8390915">
        <ele>25.8</ele>
        <time>2011-12-10T14:21:36Z</time>
      </trkpt>
      <trkpt lat="59.442244" lon="17.8390674">
        <ele>25.8</ele>
        <time>2011-12-10T14:21:38Z</time>
      </trkpt>
      <trkpt lat="59.4423635" lon="17.8390292">
        <ele>25.8</ele>
        <time>2011-12-10T14:21:41Z</time>
      </trkpt>
      <trkpt lat="59.4425739" lon="17.8389571">
        <ele>26.4</ele>
        <time>2011-12-10T14:21:47Z</time>
      </trkpt>
      <trkpt lat="59.4427793" lon="17.8389241">
        <ele>25</ele>
        <time>2011-12-10T14:21:53Z</time>
      </trkpt>
      <trkpt lat="59.442966" lon="17.8389091">
        <ele>24.6</ele>
        <time>2011-12-10T14:21:59Z</time>
      </trkpt>
      <trkpt lat="59.4431702" lon="17.8388773">
        <ele>23.4</ele>
        <time>2011-12-10T14:22:06Z</time>
      </trkpt>
      <trkpt lat="59.4433567" lon="17.8388887">
        <ele>23.8</ele>
        <time>2011-12-10T14:22:11Z</time>
      </trkpt>
      <trkpt lat="59.4435487" lon="17.8389095">
        <ele>25.2</ele>
        <time>2011-12-10T14:22:16Z</time>
      </trkpt>
      <trkpt lat="59.4437365" lon="17.8389824">
        <ele>25.4</ele>
        <time>2011-12-10T14:22:21Z</time>
      </trkpt>
      <trkpt lat="59.4439405" lon="17.8390661">
        <ele>25.2</ele>
        <time>2011-12-10T14:22:27Z</time>
      </trkpt>
      <trkpt lat="59.4441219" lon="17.8391166">
        <ele>26</ele>
        <time>2011-12-10T14:22:33Z</time>
      </trkpt>
      <trkpt lat="59.4443253" lon="17.83918">
        <ele>25.4</ele>
        <time>2011-12-10T14:22:40Z</time>
      </trkpt>
      <trkpt lat="59.4445129" lon="17.8392593">
        <ele>26.8</ele>
        <time>2011-12-10T14:22:47Z</time>
      </trkpt>
      <trkpt lat="59.4447083" lon="17.8393153">
        <ele>25.6</ele>
        <time>2011-12-10T14:22:55Z</time>
      </trkpt>
      <trkpt lat="59.4449033" lon="17.8393262">
        <ele>25.4</ele>
        <time>2011-12-10T14:23:03Z</time>
      </trkpt>
      <trkpt lat="59.4449749" lon="17.8393463">
        <ele>25.4</ele>
        <time>2011-12-10T14:23:06Z</time>
      </trkpt>
      <trkpt lat="59.4450796" lon="17.8393536">
        <ele>25.4</ele>
        <time>2011-12-10T14:23:10Z</time>
      </trkpt>
      <trkpt lat="59.4452638" lon="17.8393178">
        <ele>24.8</ele>
        <time>2011-12-10T14:23:18Z</time>
      </trkpt>
      <trkpt lat="59.4454607" lon="17.8392275">
        <ele>24.2</ele>
        <time>2011-12-10T14:23:26Z</time>
      </trkpt>
      <trkpt lat="59.4456474" lon="17.8391163">
        <ele>26</ele>
        <time>2011-12-10T14:23:33Z</time>
      </trkpt>
      <trkpt lat="59.4458385" lon="17.8390113">
        <ele>28</ele>
        <time>2011-12-10T14:23:40Z</time>
      </trkpt>
      <trkpt lat="59.4460142" lon="17.8388863">
        <ele>28.8</ele>
        <time>2011-12-10T14:23:46Z</time>
      </trkpt>
      <trkpt lat="59.4461895" lon="17.838755">
        <ele>28.4</ele>
        <time>2011-12-10T14:23:52Z</time>
      </trkpt>
      <trkpt lat="59.4462137" lon="17.8387288">
        <ele>27.2</ele>
        <time>2011-12-10T14:23:53Z</time>
      </trkpt>
      <trkpt lat="59.4463463" lon="17.8386299">
        <ele>27.4</ele>
        <time>2011-12-10T14:23:57Z</time>
      </trkpt>
      <trkpt lat="59.4463752" lon="17.8386071">
        <ele>27.2</ele>
        <time>2011-12-10T14:23:58Z</time>
      </trkpt>
      <trkpt lat="59.4465749" lon="17.8384673">
        <ele>26.6</ele>
        <time>2011-12-10T14:24:04Z</time>
      </trkpt>
      <trkpt lat="59.4467616" lon="17.8382834">
        <ele>27</ele>
        <time>2011-12-10T14:24:09Z</time>
      </trkpt>
      <trkpt lat="59.44693" lon="17.8381018">
        <ele>28.2</ele>
        <time>2011-12-10T14:24:14Z</time>
      </trkpt>
      <trkpt lat="59.4470883" lon="17.8378818">
        <ele>28</ele>
        <time>2011-12-10T14:24:19Z</time>
      </trkpt>
      <trkpt lat="59.4472745" lon="17.8377056">
        <ele>28.4</ele>
        <time>2011-12-10T14:24:25Z</time>
      </trkpt>
      <trkpt lat="59.4474371" lon="17.837526">
        <ele>27.4</ele>
        <time>2011-12-10T14:24:31Z</time>
      </trkpt>
      <trkpt lat="59.4475165" lon="17.8374834">
        <ele>27.2</ele>
        <time>2011-12-10T14:24:34Z</time>
      </trkpt>
      <trkpt lat="59.4476133" lon="17.8374653">
        <ele>25.6</ele>
        <time>2011-12-10T14:24:38Z</time>
      </trkpt>
      <trkpt lat="59.4477829" lon="17.8373284">
        <ele>24</ele>
        <time>2011-12-10T14:24:45Z</time>
      </trkpt>
      <trkpt lat="59.4478043" lon="17.8373073">
        <ele>23.8</ele>
        <time>2011-12-10T14:24:46Z</time>
      </trkpt>
      <trkpt lat="59.4479505" lon="17.8371525">
        <ele>24</ele>
        <time>2011-12-10T14:24:52Z</time>
      </trkpt>
      <trkpt lat="59.4481257" lon="17.8369855">
        <ele>24.2</ele>
        <time>2011-12-10T14:24:59Z</time>
      </trkpt>
      <trkpt lat="59.4483038" lon="17.8368485">
        <ele>27.4</ele>
        <time>2011-12-10T14:25:06Z</time>
      </trkpt>
      <trkpt lat="59.4484867" lon="17.8366761">
        <ele>27.2</ele>
        <time>2011-12-10T14:25:13Z</time>
      </trkpt>
      <trkpt lat="59.4486551" lon="17.8365226">
        <ele>24.8</ele>
        <time>2011-12-10T14:25:19Z</time>
      </trkpt>
      <trkpt lat="59.4488435" lon="17.8363496">
        <ele>27.6</ele>
        <time>2011-12-10T14:25:26Z</time>
      </trkpt>
      <trkpt lat="59.4490275" lon="17.8361265">
        <ele>28.8</ele>
        <time>2011-12-10T14:25:32Z</time>
      </trkpt>
      <trkpt lat="59.4491901" lon="17.8359244">
        <ele>30</ele>
        <time>2011-12-10T14:25:38Z</time>
      </trkpt>
      <trkpt lat="59.4492823" lon="17.8358151">
        <ele>30.4</ele>
        <time>2011-12-10T14:25:42Z</time>
      </trkpt>
      <trkpt lat="59.4493387" lon="17.8357162">
        <ele>28.4</ele>
        <time>2011-12-10T14:25:45Z</time>
      </trkpt>
      <trkpt lat="59.4493872" lon="17.8356927">
        <ele>28.4</ele>
        <time>2011-12-10T14:25:47Z</time>
      </trkpt>
      <trkpt lat="59.449518" lon="17.8356082">
        <ele>27.6</ele>
        <time>2011-12-10T14:25:53Z</time>
      </trkpt>
      <trkpt lat="59.4495818" lon="17.8355341">
        <ele>27</ele>
        <time>2011-12-10T14:25:56Z</time>
      </trkpt>
      <trkpt lat="59.4496822" lon="17.8354218">
        <ele>27.8</ele>
        <time>2011-12-10T14:26:00Z</time>
      </trkpt>
      <trkpt lat="59.4497904" lon="17.835195">
        <ele>26.8</ele>
        <time>2011-12-10T14:26:06Z</time>
      </trkpt>
      <trkpt lat="59.4498064" lon="17.8351456">
        <ele>26</ele>
        <time>2011-12-10T14:26:07Z</time>
      </trkpt>
      <trkpt lat="59.4505928" lon="17.8148955">
        <ele>14.4</ele>
        <time>2011-12-10T14:33:02Z</time>
      </trkpt>
      <trkpt lat="59.4507206" lon="17.8146049">
        <ele>14.2</ele>
        <time>2011-12-10T14:33:07Z</time>
      </trkpt>
      <trkpt lat="59.450856" lon="17.8142783">
        <ele>13.4</ele>
        <time>2011-12-10T14:33:12Z</time>
      </trkpt>
      <trkpt lat="59.4509086" lon="17.8141566">
        <ele>13.2</ele>
        <time>2011-12-10T14:33:14Z</time>
      </trkpt>
      <trkpt lat="59.4509875" lon="17.8140111">
        <ele>13.2</ele>
        <time>2011-12-10T14:33:17Z</time>
      </trkpt>
      <trkpt lat="59.4511357" lon="17.813697">
        <ele>14.2</ele>
        <time>2011-12-10T14:33:23Z</time>
      </trkpt>
      <trkpt lat="59.4512894" lon="17.8134023">
        <ele>13.8</ele>
        <time>2011-12-10T14:33:29Z</time>
      </trkpt>
      <trkpt lat="59.4514271" lon="17.8131562">
        <ele>13</ele>
        <time>2011-12-10T14:33:35Z</time>
      </trkpt>
      <trkpt lat="59.4515831" lon="17.8129124">
        <ele>12.6</ele>
        <time>2011-12-10T14:33:41Z</time>
      </trkpt>
      <trkpt lat="59.4517345" lon="17.812644">
        <ele>13.2</ele>
        <time>2011-12-10T14:33:47Z</time>
      </trkpt>
      <trkpt lat="59.4518748" lon="17.812399">
        <ele>13.8</ele>
        <time>2011-12-10T14:33:52Z</time>
      </trkpt>
      <trkpt lat="59.4520096" lon="17.8121433">
        <ele>13</ele>
        <time>2011-12-10T14:33:57Z</time>
      </trkpt>
      <trkpt lat="59.4521547" lon="17.811889">
        <ele>12.4</ele>
        <time>2011-12-10T14:34:02Z</time>
      </trkpt>
      <trkpt lat="59.4523006" lon="17.8116337">
        <ele>12.4</ele>
        <time>2011-12-10T14:34:07Z</time>
      </trkpt>
      <trkpt lat="59.4524576" lon="17.8113875">
        <ele>11.4</ele>
        <time>2011-12-10T14:34:12Z</time>
      </trkpt>
      <trkpt lat="59.4525991" lon="17.8111303">
        <ele>11.6</ele>
        <time>2011-12-10T14:34:17Z</time>
      </trkpt>
      <trkpt lat="59.4527576" lon="17.81085">
        <ele>11.2</ele>
        <time>2011-12-10T14:34:23Z</time>
      </trkpt>
      <trkpt lat="59.4529136" lon="17.8105574">
        <ele>11.8</ele>
        <time>2011-12-10T14:34:29Z</time>
      </trkpt>
      <trkpt lat="59.4530705" lon="17.8102942">
        <ele>11.8</ele>
        <time>2011-12-10T14:34:34Z</time>
      </trkpt>
      <trkpt lat="59.4532186" lon="17.8100325">
        <ele>10.6</ele>
        <time>2011-12-10T14:34:40Z</time>
      </trkpt>
      <trkpt lat="59.4533699" lon="17.8097776">
        <ele>11.4</ele>
        <time>2011-12-10T14:34:46Z</time>
      </trkpt>
      <trkpt lat="59.4535123" lon="17.8095364">
        <ele>11.6</ele>
        <time>2011-12-10T14:34:52Z</time>
      </trkpt>
      <trkpt lat="59.4536468" lon="17.8092984">
        <ele>12</ele>
        <time>2011-12-10T14:34:57Z</time>
      </trkpt>
      <trkpt lat="59.4538102" lon="17.8090355">
        <ele>11.4</ele>
        <time>2011-12-10T14:35:03Z</time>
      </trkpt>
      <trkpt lat="59.4539526" lon="17.8088133">
        <ele>11.6</ele>
        <time>2011-12-10T14:35:09Z</time>
      </trkpt>
      <trkpt lat="59.4540018" lon="17.8087059">
        <ele>11.8</ele>
        <time>2011-12-10T14:35:12Z</time>
      </trkpt>
      <trkpt lat="59.4540003" lon="17.8084776">
        <ele>12.4</ele>
        <time>2011-12-10T14:35:20Z</time>
      </trkpt>
      <trkpt lat="59.4539973" lon="17.8082894">
        <ele>12.6</ele>
        <time>2011-12-10T14:35:26Z</time>
      </trkpt>
      <trkpt lat="59.4539473" lon="17.8081902">
        <ele>12.8</ele>
        <time>2011-12-10T14:35:29Z</time>
      </trkpt>
      <trkpt lat="59.4539147" lon="17.8078385">
        <ele>14</ele>
        <time>2011-12-10T14:35:37Z</time>
      </trkpt>
      <trkpt lat="59.4540141" lon="17.8075497">
        <ele>19.2</ele>
        <time>2011-12-10T14:35:48Z</time>
      </trkpt>
      <trkpt lat="59.4540904" lon="17.8073805">
        <ele>20.6</ele>
        <time>2011-12-10T14:35:57Z</time>
      </trkpt>
      <trkpt lat="59.4540514" lon="17.8072588">
        <ele>20.2</ele>
        <time>2011-12-10T14:36:01Z</time>
      </trkpt>
      <trkpt lat="59.4539438" lon="17.8069727">
        <ele>19.2</ele>
        <time>2011-12-10T14:36:09Z</time>
      </trkpt>
      <trkpt lat="59.4539084" lon="17.8067644">
        <ele>19.6</ele>
        <time>2011-12-10T14:36:14Z</time>
      </trkpt>
      <trkpt lat="59.4539677" lon="17.8066402">
        <ele>20.2</ele>
        <time>2011-12-10T14:36:18Z</time>
      </trkpt>
      <trkpt lat="59.4541001" lon="17.8063563">
        <ele>22</ele>
        <time>2011-12-10T14:36:25Z</time>
      </trkpt>
      <trkpt lat="59.4542624" lon="17.8061206">
        <ele>25</ele>
        <time>2011-12-10T14:36:31Z</time>
      </trkpt>
      <trkpt lat="59.4544467" lon="17.8059398">
        <ele>29.6</ele>
        <time>2011-12-10T14:36:39Z</time>
      </trkpt>
      <trkpt lat="59.4546251" lon="17.805755">
        <ele>34.2</ele>
        <time>2011-12-10T14:36:47Z</time>
      </trkpt>
      <trkpt lat="59.4547862" lon="17.805542">
        <ele>30.2</ele>
        <time>2011-12-10T14:36:55Z</time>
      </trkpt>
      <trkpt lat="59.4549413" lon="17.8053046">
        <ele>28.6</ele>
        <time>2011-12-10T14:37:03Z</time>
      </trkpt>
      <trkpt lat="59.4550783" lon="17.8050122">
        <ele>21.2</ele>
        <time>2011-12-10T14:37:12Z</time>
      </trkpt>
      <trkpt lat="59.4552632" lon="17.8048444">
        <ele>15.6</ele>
        <time>2011-12-10T14:37:18Z</time>
      </trkpt>
      <trkpt lat="59.4554285" lon="17.8046589">
        <ele>14.4</ele>
        <time>2011-12-10T14:37:26Z</time>
      </trkpt>
      <trkpt lat="59.4554821" lon="17.804606">
        <ele>14.6</ele>
        <time>2011-12-10T14:37:29Z</time>
      </trkpt>
      <trkpt lat="59.4555871" lon="17.8046479">
        <ele>15.2</ele>
        <time>2011-12-10T14:37:35Z</time>
      </trkpt>
      <trkpt lat="59.4556041" lon="17.8046539">
        <ele>15.4</ele>
        <time>2011-12-10T14:37:36Z</time>
      </trkpt>
      <trkpt lat="59.4556818" lon="17.8046736">
        <ele>15.8</ele>
        <time>2011-12-10T14:37:40Z</time>
      </trkpt>
      <trkpt lat="59.4557987" lon="17.8046598">
        <ele>17</ele>
        <time>2011-12-10T14:37:45Z</time>
      </trkpt>
      <trkpt lat="59.4559759" lon="17.8047956">
        <ele>19.6</ele>
        <time>2011-12-10T14:37:52Z</time>
      </trkpt>
      <trkpt lat="59.4561692" lon="17.8049539">
        <ele>21.6</ele>
        <time>2011-12-10T14:37:59Z</time>
      </trkpt>
      <trkpt lat="59.456357" lon="17.8050929">
        <ele>22.2</ele>
        <time>2011-12-10T14:38:05Z</time>
      </trkpt>
      <trkpt lat="59.4565283" lon="17.8051921">
        <ele>22.2</ele>
        <time>2011-12-10T14:38:10Z</time>
      </trkpt>
      <trkpt lat="59.4567064" lon="17.8052814">
        <ele>20.4</ele>
        <time>2011-12-10T14:38:15Z</time>
      </trkpt>
      <trkpt lat="59.4569002" lon="17.8053813">
        <ele>20.4</ele>
        <time>2011-12-10T14:38:20Z</time>
      </trkpt>
      <trkpt lat="59.4570963" lon="17.8054394">
        <ele>17.8</ele>
        <time>2011-12-10T14:38:26Z</time>
      </trkpt>
      <trkpt lat="59.457263" lon="17.805266">
        <ele>18.6</ele>
        <time>2011-12-10T14:38:34Z</time>
      </trkpt>
      <trkpt lat="59.4574107" lon="17.8049914">
        <ele>18.6</ele>
        <time>2011-12-10T14:38:41Z</time>
      </trkpt>
      <trkpt lat="59.4575671" lon="17.8047839">
        <ele>18.2</ele>
        <time>2011-12-10T14:38:47Z</time>
      </trkpt>
      <trkpt lat="59.4577533" lon="17.8046052">
        <ele>16.2</ele>
        <time>2011-12-10T14:38:53Z</time>
      </trkpt>
      <trkpt lat="59.4579558" lon="17.8044359">
        <ele>14.8</ele>
        <time>2011-12-10T14:38:58Z</time>
      </trkpt>
      <trkpt lat="59.458049" lon="17.8043946">
        <ele>14.8</ele>
        <time>2011-12-10T14:39:00Z</time>
      </trkpt>
      <trkpt lat="59.4581406" lon="17.8043584">
        <ele>14.8</ele>
        <time>2011-12-10T14:39:02Z</time>
      </trkpt>
      <trkpt lat="59.4581833" lon="17.8043468">
        <ele>15</ele>
        <time>2011-12-10T14:39:03Z</time>
      </trkpt>
      <trkpt lat="59.4582581" lon="17.8043348">
        <ele>15</ele>
        <time>2011-12-10T14:39:05Z</time>
      </trkpt>
      <trkpt lat="59.4583304" lon="17.8043314">
        <ele>15.8</ele>
        <time>2011-12-10T14:39:07Z</time>
      </trkpt>
      <trkpt lat="59.4585399" lon="17.8043778">
        <ele>17.2</ele>
        <time>2011-12-10T14:39:14Z</time>
      </trkpt>
      <trkpt lat="59.4587484" lon="17.8043799">
        <ele>19.2</ele>
        <time>2011-12-10T14:39:21Z</time>
      </trkpt>
    </trkseg>
  </trk>
</gpx>